createdAt,value
2023-03-17T00:01:51.173Z,100390.44
2023-03-17T00:04:25.387Z,100389.53
2023-03-17T00:06:52.838Z,100400.31
2023-03-17T00:09:21.178Z,100398.63
2023-03-17T00:11:48.171Z,100391.91
2023-03-17T00:14:14.890Z,100407.47
2023-03-17T00:16:45.273Z,100395.06
2023-03-17T00:19:21.596Z,100396.09
2023-03-17T00:21:49.063Z,100397.09
2023-03-17T00:24:15.967Z,100392.09
2023-03-17T00:26:43.174Z,100381.09
2023-03-17T00:29:09.816Z,100394.31
2023-03-17T00:31:37.914Z,100397.00
2023-03-17T00:34:04.641Z,100398.47
2023-03-17T00:36:32.988Z,100389.00
2023-03-17T00:38:59.859Z,100410.66
2023-03-17T00:41:27.187Z,100411.38
2023-03-17T00:43:53.981Z,100425.72
2023-03-17T00:46:28.074Z,100433.78
2023-03-17T00:48:55.110Z,100438.69
2023-03-17T00:51:23.207Z,100430.78
2023-03-17T00:53:49.814Z,100446.97
2023-03-17T00:56:19.108Z,100445.47
2023-03-17T00:58:46.474Z,100433.31
2023-03-17T01:01:13.605Z,100428.66
2023-03-17T01:03:40.210Z,100432.16
2023-03-17T01:06:08.695Z,100433.84
2023-03-17T01:08:35.183Z,100437.38
2023-03-17T01:11:01.938Z,100434.22
2023-03-17T01:13:29.132Z,100421.56
2023-03-17T01:15:57.011Z,100416.19
2023-03-17T01:18:24.102Z,100422.97
2023-03-17T01:20:51.152Z,100422.69
2023-03-17T01:23:18.124Z,100421.81
2023-03-17T01:25:45.276Z,100404.34
2023-03-17T01:28:16.760Z,100409.38
2023-03-17T01:30:43.603Z,100411.22
2023-03-17T01:33:11.244Z,100393.56
2023-03-17T01:35:39.117Z,100396.31
2023-03-17T01:38:06.273Z,100406.91
2023-03-17T01:40:35.698Z,100389.44
2023-03-17T01:43:10.868Z,100384.03
2023-03-17T01:46:15.173Z,100379.19
2023-03-17T01:49:09.411Z,100363.75
2023-03-17T01:51:57.424Z,100355.84
2023-03-17T01:54:30.736Z,100358.34
2023-03-17T01:57:03.819Z,100343.75
2023-03-17T01:59:36.459Z,100361.72
2023-03-17T02:02:06.381Z,100362.09
2023-03-17T02:04:34.449Z,100357.19
2023-03-17T02:07:02.494Z,100344.06
2023-03-17T02:09:29.311Z,100339.16
2023-03-17T02:11:56.894Z,100341.84
2023-03-17T02:14:23.734Z,100326.03
2023-03-17T02:16:50.238Z,100323.53
2023-03-17T02:19:17.010Z,100335.31
2023-03-17T02:21:47.559Z,100342.56
2023-03-17T02:24:45.929Z,100326.41
2023-03-17T02:27:19.508Z,100316.56
2023-03-17T02:29:46.428Z,100324.28
2023-03-17T02:32:17.694Z,100315.16
2023-03-17T02:34:46.248Z,100309.78
2023-03-17T02:37:13.664Z,100307.81
2023-03-17T02:39:40.156Z,100300.09
2023-03-17T02:42:07.311Z,100313.19
2023-03-17T02:44:33.806Z,100321.28
2023-03-17T02:47:00.895Z,100324.63
2023-03-17T02:49:28.264Z,100325.81
2023-03-17T02:51:54.761Z,100323.28
2023-03-17T02:54:21.308Z,100327.00
2023-03-17T02:56:47.734Z,100331.38
2023-03-17T02:59:14.273Z,100323.19
2023-03-17T03:01:40.740Z,100323.19
2023-03-17T03:04:07.670Z,100326.06
2023-03-17T03:06:34.477Z,100319.34
2023-03-17T03:09:00.970Z,100323.78
2023-03-17T03:11:29.219Z,100334.38
2023-03-17T03:13:56.151Z,100334.38
2023-03-17T03:16:22.592Z,100329.53
2023-03-17T03:18:49.109Z,100327.19
2023-03-17T03:21:15.521Z,100334.41
2023-03-17T03:23:43.216Z,100332.06
2023-03-17T03:26:09.670Z,100319.81
2023-03-17T03:28:36.328Z,100335.97
2023-03-17T03:31:02.916Z,100338.47
2023-03-17T03:33:29.522Z,100327.53
2023-03-17T03:35:56.045Z,100325.03
2023-03-17T03:38:22.638Z,100319.19
2023-03-17T03:40:49.199Z,100318.50
2023-03-17T03:43:22.819Z,100319.81
2023-03-17T03:45:50.358Z,100289.25
2023-03-17T03:48:16.909Z,100302.34
2023-03-17T03:50:43.735Z,100301.84
2023-03-17T03:53:10.218Z,100310.13
2023-03-17T03:55:37.059Z,100324.25
2023-03-17T03:58:03.660Z,100336.03
2023-03-17T04:00:30.293Z,100325.72
2023-03-17T04:02:56.936Z,100334.66
2023-03-17T04:05:23.376Z,100325.63
2023-03-17T04:07:50.010Z,100311.03
2023-03-17T04:10:16.902Z,100312.16
2023-03-17T04:12:44.141Z,100318.75
2023-03-17T04:15:14.457Z,100328.78
2023-03-17T04:17:41.444Z,100320.88
2023-03-17T04:20:08.526Z,100313.81
2023-03-17T04:22:35.171Z,100316.22
2023-03-17T04:25:01.618Z,100319.28
2023-03-17T04:27:28.283Z,100308.50
2023-03-17T04:29:54.752Z,100317.75
2023-03-17T04:32:21.853Z,100327.34
2023-03-17T04:34:48.350Z,100321.00
2023-03-17T04:37:14.840Z,100325.63
2023-03-17T04:39:41.984Z,100339.47
2023-03-17T04:42:08.441Z,100327.69
2023-03-17T04:44:34.889Z,100327.00
2023-03-17T04:47:01.335Z,100316.44
2023-03-17T04:49:28.331Z,100322.66
2023-03-17T04:51:55.038Z,100309.22
2023-03-17T04:54:21.824Z,100310.22
2023-03-17T04:56:48.330Z,100308.53
2023-03-17T04:59:16.206Z,100304.34
2023-03-17T05:01:42.668Z,100305.03
2023-03-17T05:04:11.185Z,100318.94
2023-03-17T05:06:39.415Z,100311.91
2023-03-17T05:09:05.897Z,100311.91
2023-03-17T05:11:32.300Z,100306.16
2023-03-17T05:13:58.761Z,100318.41
2023-03-17T05:16:25.192Z,100327.69
2023-03-17T05:18:51.680Z,100325.19
2023-03-17T05:21:18.101Z,100326.19
2023-03-17T05:23:44.578Z,100329.34
2023-03-17T05:26:10.990Z,100323.13
2023-03-17T05:28:37.494Z,100311.03
2023-03-17T05:31:04.085Z,100308.50
2023-03-17T05:33:30.745Z,100315.25
2023-03-17T05:35:57.350Z,100311.53
2023-03-17T05:38:24.012Z,100311.53
2023-03-17T05:40:51.457Z,100312.56
2023-03-17T05:43:18.274Z,100311.53
2023-03-17T05:45:45.478Z,100312.56
2023-03-17T05:48:13.071Z,100312.56
2023-03-17T05:50:40.051Z,100304.97
2023-03-17T05:53:06.539Z,100301.44
2023-03-17T05:55:33.017Z,100291.34
2023-03-17T05:58:00.876Z,100292.00
2023-03-17T06:00:29.301Z,100297.41
2023-03-17T06:02:56.178Z,100296.00
2023-03-17T06:05:22.707Z,100292.53
2023-03-17T06:07:54.914Z,100311.31
2023-03-17T06:10:23.673Z,100310.97
2023-03-17T06:12:50.374Z,100308.03
2023-03-17T06:15:17.047Z,100304.97
2023-03-17T06:17:43.679Z,100320.59
2023-03-17T06:20:11.568Z,100315.03
2023-03-17T06:22:39.712Z,100307.28
2023-03-17T06:25:10.214Z,100316.50
2023-03-17T06:27:37.917Z,100304.88
2023-03-17T06:30:06.666Z,100311.38
2023-03-17T06:32:33.877Z,100306.31
2023-03-17T06:35:01.340Z,100295.00
2023-03-17T06:37:29.067Z,100287.28
2023-03-17T06:39:57.667Z,100295.66
2023-03-17T06:42:24.130Z,100300.66
2023-03-17T06:44:52.574Z,100293.72
2023-03-17T06:47:19.700Z,100296.38
2023-03-17T06:49:46.445Z,100300.06
2023-03-17T06:52:14.063Z,100301.47
2023-03-17T06:54:41.263Z,100271.00
2023-03-17T06:57:08.001Z,100305.78
2023-03-17T06:59:34.425Z,100299.19
2023-03-17T07:02:01.061Z,100296.31
2023-03-17T07:04:27.680Z,100299.19
2023-03-17T07:06:54.438Z,100305.25
2023-03-17T07:09:21.975Z,100318.53
2023-03-17T07:11:48.483Z,100311.44
2023-03-17T07:14:15.320Z,100312.78
2023-03-17T07:16:41.878Z,100311.38
2023-03-17T07:19:08.383Z,100320.94
2023-03-17T07:21:34.859Z,100311.38
2023-03-17T07:24:01.822Z,100315.19
2023-03-17T07:26:28.547Z,100305.91
2023-03-17T07:28:55.067Z,100301.81
2023-03-17T07:31:21.580Z,100303.75
2023-03-17T07:33:48.052Z,100304.88
2023-03-17T07:36:15.820Z,100291.50
2023-03-17T07:38:43.183Z,100294.47
2023-03-17T07:41:10.690Z,100290.66
2023-03-17T07:43:38.107Z,100288.88
2023-03-17T07:46:06.384Z,100285.88
2023-03-17T07:48:33.399Z,100283.28
2023-03-17T07:51:00.444Z,100293.19
2023-03-17T07:53:26.921Z,100277.25
2023-03-17T07:55:53.477Z,100290.31
2023-03-17T07:58:20.225Z,100280.06
2023-03-17T08:00:47.244Z,100267.41
2023-03-17T08:03:13.832Z,100272.47
2023-03-17T08:05:40.962Z,100281.94
2023-03-17T08:08:07.419Z,100280.16
2023-03-17T08:10:34.310Z,100274.78
2023-03-17T08:13:01.334Z,100281.28
2023-03-17T08:15:27.814Z,100280.69
2023-03-17T08:17:54.265Z,100285.13
2023-03-17T08:20:21.715Z,100279.78
2023-03-17T08:22:48.247Z,100287.38
2023-03-17T08:25:14.902Z,100283.66
2023-03-17T08:27:42.284Z,100287.53
2023-03-17T08:30:09.586Z,100286.97
2023-03-17T08:32:36.500Z,100292.47
2023-03-17T08:35:02.969Z,100299.06
2023-03-17T08:37:29.463Z,100294.56
2023-03-17T08:39:56.029Z,100293.56
2023-03-17T08:42:22.588Z,100299.25
2023-03-17T08:44:49.343Z,100289.72
2023-03-17T08:47:16.165Z,100275.38
2023-03-17T08:49:43.696Z,100282.69
2023-03-17T08:52:11.033Z,100279.59
2023-03-17T08:54:37.759Z,100274.00
2023-03-17T08:57:04.219Z,100269.00
2023-03-17T08:59:30.763Z,100273.38
2023-03-17T09:01:57.297Z,100271.97
2023-03-17T09:04:23.851Z,100273.19
2023-03-17T09:07:02.726Z,100265.06
2023-03-17T09:09:31.102Z,100267.97
2023-03-17T09:11:58.363Z,100279.06
2023-03-17T09:14:25.013Z,100275.94
2023-03-17T09:16:52.259Z,100276.34
2023-03-17T09:19:18.932Z,100287.41
2023-03-17T09:21:45.786Z,100289.91
2023-03-17T09:24:13.655Z,100288.06
2023-03-17T09:26:40.536Z,100284.94
2023-03-17T09:29:07.168Z,100288.06
2023-03-17T09:31:36.330Z,100292.03
2023-03-17T09:34:05.120Z,100286.19
2023-03-17T09:36:33.088Z,100279.72
2023-03-17T09:39:00.330Z,100284.09
2023-03-17T09:41:49.291Z,100282.84
2023-03-17T09:44:25.544Z,100279.06
2023-03-17T09:47:19.566Z,100275.72
2023-03-17T09:49:57.324Z,100282.81
2023-03-17T09:52:34.514Z,100262.97
2023-03-17T09:55:03.661Z,100263.16
2023-03-17T09:57:36.235Z,100251.06
2023-03-17T10:00:11.916Z,100262.31
2023-03-17T10:02:38.511Z,100266.88
2023-03-17T10:05:17.146Z,100271.25
2023-03-17T10:07:55.991Z,100267.69
2023-03-17T10:10:30.291Z,100272.28
2023-03-17T10:13:10.372Z,100273.50
2023-03-17T10:16:01.852Z,100279.31
2023-03-17T10:18:32.892Z,100287.63
2023-03-17T10:21:04.367Z,100274.88
2023-03-17T10:23:33.678Z,100272.53
2023-03-17T10:26:13.647Z,100278.97
2023-03-17T10:28:40.310Z,100283.28
2023-03-17T10:31:15.666Z,100275.41
2023-03-17T10:33:46.566Z,100266.47
2023-03-17T10:36:17.460Z,100276.47
2023-03-17T10:38:56.064Z,100264.97
2023-03-17T10:41:23.075Z,100272.25
2023-03-17T10:43:54.458Z,100265.97
2023-03-17T10:46:24.301Z,100263.09
2023-03-17T10:48:54.793Z,100253.56
2023-03-17T10:51:30.529Z,100245.41
2023-03-17T10:54:00.280Z,100252.09
2023-03-17T10:56:30.813Z,100245.84
2023-03-17T10:59:04.735Z,100242.50
2023-03-17T11:01:44.064Z,100240.84
2023-03-17T11:04:30.796Z,100238.56
2023-03-17T11:06:58.803Z,100233.53
2023-03-17T11:09:27.972Z,100236.25
2023-03-17T11:12:08.730Z,100241.94
2023-03-17T11:14:35.455Z,100252.16
2023-03-17T11:17:19.301Z,100249.16
2023-03-17T11:20:04.386Z,100237.84
2023-03-17T11:23:03.287Z,100231.75
2023-03-17T11:25:31.972Z,100219.41
2023-03-17T11:28:12.042Z,100210.59
2023-03-17T11:30:50.545Z,100219.75
2023-03-17T11:33:38.346Z,100214.25
2023-03-17T11:36:30.666Z,100213.78
2023-03-17T11:39:10.932Z,100203.25
2023-03-17T11:41:53.684Z,100203.56
2023-03-17T11:44:23.491Z,100192.19
2023-03-17T11:47:32.084Z,100191.88
2023-03-17T11:50:12.253Z,100194.13
2023-03-17T11:53:21.086Z,100197.59
2023-03-17T11:55:51.659Z,100186.00
2023-03-17T11:58:46.480Z,100197.81
2023-03-17T12:01:18.056Z,100199.47
2023-03-17T12:04:09.029Z,100196.19
2023-03-17T12:06:42.817Z,100192.53
2023-03-17T12:09:27.699Z,100168.59
2023-03-17T12:11:55.935Z,100186.06
2023-03-17T12:14:30.675Z,100194.44
2023-03-17T12:17:05.184Z,100200.63
2023-03-17T12:19:59.282Z,100197.59
2023-03-17T12:22:33.638Z,100199.19
2023-03-17T12:25:34.986Z,100199.97
2023-03-17T12:28:16.075Z,100196.22
2023-03-17T12:31:21.531Z,100172.09
2023-03-17T12:34:04.040Z,100189.25
2023-03-17T12:36:31.129Z,100188.84
2023-03-17T12:39:02.077Z,100191.34
2023-03-17T12:41:42.853Z,100169.31
2023-03-17T12:44:44.634Z,100174.22
2023-03-17T12:47:45.263Z,100137.53
2023-03-17T12:50:36.745Z,100166.81
2023-03-17T12:53:12.310Z,100162.78
2023-03-17T12:55:39.329Z,100160.41
2023-03-17T12:58:28.740Z,100160.16
2023-03-17T13:01:08.805Z,100156.50
2023-03-17T13:03:45.394Z,100158.13
2023-03-17T13:06:19.741Z,100152.69
2023-03-17T13:08:46.712Z,100146.88
2023-03-17T13:11:27.624Z,100140.97
2023-03-17T13:13:54.373Z,100140.75
2023-03-17T13:16:37.056Z,100142.16
2023-03-17T13:19:14.511Z,100131.72
2023-03-17T13:21:48.774Z,100141.44
2023-03-17T13:24:18.678Z,100144.66
2023-03-17T13:26:55.347Z,100138.28
2023-03-17T13:29:33.785Z,100143.84
2023-03-17T13:32:15.517Z,100140.06
2023-03-17T13:34:48.725Z,100135.19
2023-03-17T13:37:37.226Z,100141.56
2023-03-17T13:40:57.935Z,100139.09
2023-03-17T13:43:44.488Z,100138.84
2023-03-17T13:46:37.448Z,100139.69
2023-03-17T13:49:15.058Z,100142.56
2023-03-17T13:51:52.771Z,100122.25
2023-03-17T13:54:28.560Z,100136.63
2023-03-17T13:56:59.281Z,100130.59
2023-03-17T13:59:53.740Z,100129.16
2023-03-17T14:02:27.124Z,100128.78
2023-03-17T14:04:58.182Z,100135.91
2023-03-17T14:07:37.017Z,100139.84
2023-03-17T14:10:05.352Z,100130.34
2023-03-17T14:13:11.272Z,100125.22
2023-03-17T14:15:47.893Z,100128.66
2023-03-17T14:18:28.010Z,100137.13
2023-03-17T14:20:57.403Z,100131.16
2023-03-17T14:23:25.062Z,100141.34
2023-03-17T14:25:54.877Z,100120.00
2023-03-17T14:28:27.365Z,100122.88
2023-03-17T14:31:19.903Z,100107.69
2023-03-17T14:33:46.514Z,100106.13
2023-03-17T14:36:14.609Z,100103.16
2023-03-17T14:38:48.924Z,100122.88
2023-03-17T14:41:15.556Z,100125.00
2023-03-17T14:43:43.881Z,100129.16
2023-03-17T14:46:19.236Z,100128.66
2023-03-17T14:48:48.763Z,100125.13
2023-03-17T14:51:26.593Z,100132.69
2023-03-17T14:53:56.747Z,100134.97
2023-03-17T14:56:31.264Z,100136.38
2023-03-17T14:59:16.804Z,100136.03
2023-03-17T15:01:47.421Z,100122.63
2023-03-17T15:04:49.295Z,100122.97
2023-03-17T15:07:29.219Z,100137.59
2023-03-17T15:10:02.350Z,100133.78
2023-03-17T15:12:30.167Z,100136.63
2023-03-17T15:15:06.297Z,100134.88
2023-03-17T15:17:37.234Z,100127.84
2023-03-17T15:20:16.209Z,100128.19
2023-03-17T15:22:48.407Z,100116.94
2023-03-17T15:25:20.029Z,100127.94
2023-03-17T15:27:47.693Z,100120.97
2023-03-17T15:30:14.490Z,100121.31
2023-03-17T15:32:41.197Z,100134.22
2023-03-17T15:35:12.599Z,100134.38
2023-03-17T15:37:39.323Z,100154.09
2023-03-17T15:40:06.828Z,100146.22
2023-03-17T15:42:35.739Z,100156.19
2023-03-17T15:45:03.635Z,100133.44
2023-03-17T15:47:36.865Z,100134.38
2023-03-17T15:50:16.329Z,100123.47
2023-03-17T15:52:44.058Z,100123.94
2023-03-17T15:55:22.849Z,100115.50
2023-03-17T15:57:56.683Z,100127.59
2023-03-17T16:00:29.029Z,100115.50
2023-03-17T16:02:59.562Z,100118.94
2023-03-17T16:05:29.222Z,100124.03
2023-03-17T16:07:55.747Z,100110.88
2023-03-17T16:10:25.602Z,100117.63
2023-03-17T16:12:52.494Z,100126.94
2023-03-17T16:15:27.862Z,100126.78
2023-03-17T16:17:58.296Z,100135.91
2023-03-17T16:20:54.341Z,100156.97
2023-03-17T16:23:27.503Z,100169.34
2023-03-17T16:25:59.267Z,100141.97
2023-03-17T16:28:32.495Z,100153.31
2023-03-17T16:31:01.078Z,100145.00
2023-03-17T16:33:32.216Z,100147.38
2023-03-17T16:36:00.389Z,100151.22
2023-03-17T16:38:30.806Z,100158.19
2023-03-17T16:41:06.242Z,100149.28
2023-03-17T16:43:37.786Z,100138.66
2023-03-17T16:46:06.063Z,100109.00
2023-03-17T16:48:33.213Z,100105.69
2023-03-17T16:51:00.860Z,100102.81
2023-03-17T16:53:27.371Z,100125.47
2023-03-17T16:55:55.358Z,100168.16
2023-03-17T16:58:26.152Z,100135.53
2023-03-17T17:00:57.563Z,100170.31
2023-03-17T17:03:24.235Z,100178.81
2023-03-17T17:05:50.938Z,100151.25
2023-03-17T17:08:17.423Z,100162.59
2023-03-17T17:10:43.886Z,100171.81
2023-03-17T17:13:11.962Z,100168.69
2023-03-17T17:15:39.271Z,100184.16
2023-03-17T17:18:11.288Z,100173.78
2023-03-17T17:20:39.425Z,100177.31
2023-03-17T17:23:10.407Z,100177.16
2023-03-17T17:25:36.898Z,100183.63
2023-03-17T17:28:03.721Z,100189.28
2023-03-17T17:30:30.954Z,100199.34
2023-03-17T17:33:00.341Z,100193.28
2023-03-17T17:35:31.234Z,100163.59
2023-03-17T17:37:59.326Z,100145.22
2023-03-17T17:40:26.061Z,100132.56
2023-03-17T17:42:53.626Z,100156.84
2023-03-17T17:45:21.329Z,100174.88
2023-03-17T17:47:48.277Z,100177.19
2023-03-17T17:50:33.507Z,100165.75
2023-03-17T17:53:05.222Z,100179.78
2023-03-17T17:55:33.329Z,100170.63
2023-03-17T17:58:00.285Z,100196.38
2023-03-17T18:00:26.874Z,100226.91
2023-03-17T18:02:53.297Z,100226.13
2023-03-17T18:05:28.741Z,100236.44
2023-03-17T18:07:55.147Z,100237.50
2023-03-17T18:10:25.744Z,100237.09
2023-03-17T18:12:53.345Z,100224.75
2023-03-17T18:15:21.905Z,100219.72
2023-03-17T18:17:49.113Z,100196.75
2023-03-17T18:20:18.252Z,100209.25
2023-03-17T18:22:44.923Z,100220.13
2023-03-17T18:25:12.833Z,100223.47
2023-03-17T18:27:39.771Z,100234.56
2023-03-17T18:30:08.748Z,100242.06
2023-03-17T18:32:35.509Z,100240.22
2023-03-17T18:35:06.774Z,100241.91
2023-03-17T18:37:33.698Z,100244.16
2023-03-17T18:40:13.490Z,100234.56
2023-03-17T18:42:41.894Z,100239.78
2023-03-17T18:45:09.879Z,100236.22
2023-03-17T18:47:38.638Z,100239.56
2023-03-17T18:50:06.977Z,100222.41
2023-03-17T18:52:35.265Z,100221.75
2023-03-17T18:55:01.871Z,100233.00
2023-03-17T18:57:28.625Z,100241.56
2023-03-17T18:59:55.872Z,100224.22
2023-03-17T19:02:22.444Z,100232.34
2023-03-17T19:04:48.957Z,100236.50
2023-03-17T19:07:16.392Z,100234.00
2023-03-17T19:09:42.982Z,100221.50
2023-03-17T19:12:09.830Z,100219.84
2023-03-17T19:14:38.403Z,100226.91
2023-03-17T19:17:06.123Z,100217.53
2023-03-17T19:19:33.276Z,100229.47
2023-03-17T19:22:00.753Z,100228.84
2023-03-17T19:24:27.530Z,100235.34
2023-03-17T19:26:53.986Z,100227.00
2023-03-17T19:29:20.550Z,100224.94
2023-03-17T19:31:48.574Z,100225.16
2023-03-17T19:34:15.351Z,100228.06
2023-03-17T19:36:45.751Z,100233.97
2023-03-17T19:39:13.092Z,100222.88
2023-03-17T19:41:39.820Z,100227.09
2023-03-17T19:44:09.108Z,100226.03
2023-03-17T19:46:36.947Z,100218.72
2023-03-17T19:49:04.746Z,100222.28
2023-03-17T19:51:32.829Z,100217.91
2023-03-17T19:54:01.793Z,100233.38
2023-03-17T19:56:28.315Z,100229.81
2023-03-17T19:58:55.338Z,100224.00
2023-03-17T20:01:22.731Z,100203.34
2023-03-17T20:03:49.245Z,100244.22
2023-03-17T20:06:15.790Z,100241.72
2023-03-17T20:08:43.162Z,100244.66
2023-03-17T20:11:12.039Z,100254.03
2023-03-17T20:13:39.323Z,100259.31
2023-03-17T20:16:07.180Z,100250.13
2023-03-17T20:18:34.129Z,100267.66
2023-03-17T20:21:01.588Z,100268.28
2023-03-17T20:23:28.157Z,100271.47
2023-03-17T20:25:54.646Z,100284.63
2023-03-17T20:28:21.600Z,100288.22
2023-03-17T20:30:49.241Z,100276.53
2023-03-17T20:33:16.420Z,100288.66
2023-03-17T20:35:46.467Z,100290.34
2023-03-17T20:38:14.492Z,100305.16
2023-03-17T20:40:41.749Z,100312.25
2023-03-17T20:43:08.441Z,100309.75
2023-03-17T20:45:35.048Z,100304.13
2023-03-17T20:48:01.994Z,100297.88
2023-03-17T20:50:31.123Z,100291.81
2023-03-17T20:52:57.976Z,100289.53
2023-03-17T20:55:25.226Z,100279.31
2023-03-17T20:57:52.701Z,100280.34
2023-03-17T21:00:21.220Z,100273.25
2023-03-17T21:02:50.196Z,100273.25
2023-03-17T21:05:20.869Z,100273.25
2023-03-17T21:07:48.527Z,100276.59
2023-03-17T21:10:16.606Z,100287.03
2023-03-17T21:12:43.347Z,100272.84
2023-03-17T21:15:11.091Z,100272.84
2023-03-17T21:17:40.257Z,100270.34
2023-03-17T21:20:09.456Z,100257.63
2023-03-17T21:22:36.790Z,100266.38
2023-03-17T21:25:05.017Z,100269.50
2023-03-17T21:27:31.501Z,100265.09
2023-03-17T21:29:58.006Z,100257.97
2023-03-17T21:32:24.625Z,100265.69
2023-03-17T21:34:51.340Z,100256.72
2023-03-17T21:37:18.542Z,100267.78
2023-03-17T21:39:45.786Z,100269.03
2023-03-17T21:42:12.659Z,100265.69
2023-03-17T21:44:39.542Z,100274.22
2023-03-17T21:47:06.056Z,100279.44
2023-03-17T21:49:32.535Z,100284.84
2023-03-17T21:51:58.965Z,100276.72
2023-03-17T21:54:25.591Z,100270.91
2023-03-17T21:56:52.652Z,100286.13
2023-03-17T21:59:20.857Z,100281.91
2023-03-17T22:01:47.855Z,100284.00
2023-03-17T22:04:14.364Z,100288.81
2023-03-17T22:06:41.202Z,100287.34
2023-03-17T22:09:08.525Z,100283.19
2023-03-17T22:11:35.016Z,100290.03
2023-03-17T22:14:01.934Z,100269.81
2023-03-17T22:16:28.846Z,100291.13
2023-03-17T22:18:55.441Z,100295.69
2023-03-17T22:21:23.455Z,100261.50
2023-03-17T22:23:49.965Z,100275.69
2023-03-17T22:26:21.314Z,100288.41
2023-03-17T22:28:49.629Z,100296.91
2023-03-17T22:31:21.930Z,100294.22
2023-03-17T22:33:53.889Z,100287.13
2023-03-17T22:36:24.052Z,100292.75
2023-03-17T22:38:50.583Z,100282.94
2023-03-17T22:41:20.516Z,100296.06
2023-03-17T22:43:47.138Z,100281.28
2023-03-17T22:46:15.690Z,100288.56
2023-03-17T22:48:42.225Z,100289.41
2023-03-17T22:51:14.458Z,100300.22
2023-03-17T22:53:41.174Z,100284.38
2023-03-17T22:56:09.073Z,100292.75
2023-03-17T22:58:35.722Z,100289.00
2023-03-17T23:01:02.600Z,100293.16
2023-03-17T23:03:29.744Z,100289.81
2023-03-17T23:06:00.016Z,100295.47
2023-03-17T23:08:29.285Z,100284.81
2023-03-17T23:10:56.737Z,100286.50
2023-03-17T23:13:24.083Z,100293.19
2023-03-17T23:15:50.545Z,100300.69
2023-03-17T23:18:17.184Z,100300.69
2023-03-17T23:20:43.661Z,100296.69
2023-03-17T23:23:12.118Z,100298.78
2023-03-17T23:25:39.051Z,100301.69
2023-03-17T23:28:06.755Z,100279.97
2023-03-17T23:30:34.608Z,100282.47
2023-03-17T23:33:05.165Z,100269.31
2023-03-17T23:35:32.009Z,100308.09
2023-03-17T23:37:58.584Z,100301.63
2023-03-17T23:40:25.071Z,100304.53
2023-03-17T23:42:54.362Z,100311.41
2023-03-17T23:45:23.156Z,100317.22
2023-03-17T23:47:51.506Z,100309.75
2023-03-17T23:50:19.299Z,100317.22
2023-03-17T23:52:46.459Z,100300.19
2023-03-17T23:55:12.945Z,100300.59
2023-03-17T23:57:39.406Z,100302.25
